createdAt,value
2023-04-05T00:00:39.621Z,99.90
2023-04-05T00:03:17.949Z,99.90
2023-04-05T00:05:46.013Z,99.90
2023-04-05T00:08:24.035Z,99.90
2023-04-05T00:10:51.233Z,99.90
2023-04-05T00:13:18.578Z,99.90
2023-04-05T00:15:45.562Z,99.90
2023-04-05T00:18:22.060Z,99.90
2023-04-05T00:20:50.159Z,99.90
2023-04-05T00:23:25.631Z,99.90
2023-04-05T00:25:53.173Z,99.90
2023-04-05T00:28:20.373Z,99.90
2023-04-05T00:30:47.571Z,99.90
2023-04-05T00:33:15.090Z,99.90
2023-04-05T00:35:42.108Z,99.90
2023-04-05T00:38:09.504Z,99.90
2023-04-05T00:40:37.130Z,99.90
2023-04-05T00:43:04.375Z,99.90
2023-04-05T00:45:31.875Z,99.90
2023-04-05T00:47:59.162Z,99.90
2023-04-05T00:50:30.934Z,99.90
2023-04-05T00:52:59.153Z,99.90
2023-04-05T00:55:27.018Z,99.90
2023-04-05T00:57:56.101Z,99.90
2023-04-05T01:00:23.211Z,99.90
2023-04-05T01:02:58.020Z,99.90
2023-04-05T01:05:31.772Z,99.90
2023-04-05T01:08:08.619Z,99.90
2023-04-05T01:10:39.454Z,99.90
2023-04-05T01:13:07.275Z,99.90
2023-04-05T01:15:34.250Z,99.90
2023-04-05T01:18:04.320Z,99.90
2023-04-05T01:20:37.445Z,99.90
2023-04-05T01:23:38.083Z,99.90
2023-04-05T01:26:25.616Z,99.90
2023-04-05T01:29:30.640Z,99.90
2023-04-05T01:32:03.061Z,99.90
2023-04-05T01:34:54.040Z,99.90
2023-04-05T01:37:26.325Z,99.90
2023-04-05T01:39:54.942Z,99.90
2023-04-05T01:42:26.167Z,99.90
2023-04-05T01:44:55.248Z,99.90
2023-04-05T01:47:22.448Z,99.90
2023-04-05T01:49:49.859Z,99.90
2023-04-05T01:52:16.913Z,99.90
2023-04-05T01:54:44.196Z,99.90
2023-04-05T01:57:11.175Z,99.90
2023-04-05T01:59:38.823Z,99.90
2023-04-05T02:02:05.936Z,99.90
2023-04-05T02:04:33.262Z,99.90
2023-04-05T02:07:01.021Z,99.90
2023-04-05T02:09:28.426Z,99.90
2023-04-05T02:11:56.379Z,99.90
2023-04-05T02:14:25.064Z,99.90
2023-04-05T02:16:55.800Z,99.90
2023-04-05T02:19:24.099Z,99.90
2023-04-05T02:21:52.597Z,99.90
2023-04-05T02:24:20.406Z,99.90
2023-04-05T02:26:47.546Z,99.90
2023-04-05T02:29:14.944Z,99.90
2023-04-05T02:31:41.993Z,99.90
2023-04-05T02:34:09.236Z,99.90
2023-04-05T02:36:37.102Z,99.90
2023-04-05T02:39:04.808Z,99.90
2023-04-05T02:41:31.773Z,99.90
2023-04-05T02:44:00.047Z,99.90
2023-04-05T02:46:27.068Z,99.90
2023-04-05T02:48:54.464Z,99.90
2023-04-05T02:51:21.449Z,99.90
2023-04-05T02:53:48.675Z,99.90
2023-04-05T02:56:15.680Z,99.90
2023-04-05T02:58:43.247Z,99.90
2023-04-05T03:01:10.428Z,99.90
2023-04-05T03:03:38.134Z,99.90
2023-04-05T03:06:15.356Z,99.90
2023-04-05T03:08:46.636Z,99.90
2023-04-05T03:11:13.732Z,99.90
2023-04-05T03:13:41.498Z,99.90
2023-04-05T03:16:08.636Z,99.90
2023-04-05T03:18:35.909Z,99.90
2023-04-05T03:21:04.602Z,99.90
2023-04-05T03:23:33.378Z,99.90
2023-04-05T03:26:01.951Z,99.90
2023-04-05T03:28:32.573Z,99.90
2023-04-05T03:30:59.628Z,99.90
2023-04-05T03:33:27.002Z,99.90
2023-04-05T03:35:54.060Z,99.90
2023-04-05T03:38:21.523Z,99.90
2023-04-05T03:40:48.493Z,99.90
2023-04-05T03:43:16.772Z,99.90
2023-04-05T03:45:43.813Z,99.90
2023-04-05T03:48:11.320Z,99.90
2023-04-05T03:50:38.390Z,99.90
2023-04-05T03:53:05.872Z,99.90
2023-04-05T03:55:32.884Z,99.90
2023-04-05T03:58:00.767Z,99.90
2023-04-05T04:00:28.418Z,99.90
2023-04-05T04:02:56.201Z,99.90
2023-04-05T04:05:23.407Z,99.90
2023-04-05T04:07:51.115Z,99.90
2023-04-05T04:10:18.230Z,99.90
2023-04-05T04:12:46.185Z,99.90
2023-04-05T04:15:13.313Z,99.90
2023-04-05T04:17:40.979Z,99.90
2023-04-05T04:20:12.061Z,99.90
2023-04-05T04:22:40.394Z,99.90
2023-04-05T04:25:11.858Z,99.90
2023-04-05T04:27:42.102Z,99.90
2023-04-05T04:30:13.548Z,99.90
2023-04-05T04:32:51.892Z,99.90
2023-04-05T04:35:28.035Z,99.90
2023-04-05T04:38:01.405Z,99.90
2023-04-05T04:40:29.388Z,99.90
2023-04-05T04:42:58.819Z,99.90
2023-04-05T04:45:26.377Z,99.90
2023-04-05T04:47:54.830Z,99.90
2023-04-05T04:50:23.019Z,99.90
2023-04-05T04:52:50.347Z,99.90
2023-04-05T04:55:17.317Z,99.90
2023-04-05T04:57:44.769Z,99.90
2023-04-05T05:00:14.579Z,99.90
2023-04-05T05:02:44.169Z,99.90
2023-04-05T05:05:11.722Z,99.90
2023-04-05T05:07:41.935Z,99.90
2023-04-05T05:10:11.258Z,99.90
2023-04-05T05:12:39.153Z,99.90
2023-04-05T05:15:06.656Z,99.90
2023-04-05T05:17:35.360Z,99.90
2023-04-05T05:20:05.479Z,99.90
2023-04-05T05:22:32.737Z,99.90
2023-04-05T05:24:59.816Z,99.90
2023-04-05T05:27:28.409Z,99.90
2023-04-05T05:29:55.912Z,99.90
2023-04-05T05:32:23.596Z,99.90
2023-04-05T05:34:50.588Z,99.90
2023-04-05T05:37:18.519Z,99.90
2023-04-05T05:39:45.853Z,99.90
2023-04-05T05:42:13.302Z,99.90
2023-04-05T05:44:40.316Z,99.90
2023-04-05T05:47:07.521Z,99.90
2023-04-05T05:49:34.649Z,99.90
2023-04-05T05:52:03.389Z,99.90
2023-04-05T05:54:30.477Z,99.90
2023-04-05T05:56:57.841Z,99.90
2023-04-05T05:59:25.093Z,99.90
2023-04-05T06:01:52.671Z,99.90
2023-04-05T06:04:19.839Z,99.90
2023-04-05T06:06:47.882Z,99.90
2023-04-05T06:09:15.746Z,99.90
2023-04-05T06:11:53.224Z,99.90
2023-04-05T06:14:23.279Z,99.90
2023-04-05T06:16:50.959Z,99.90
2023-04-05T06:19:17.965Z,99.90
2023-04-05T06:21:45.423Z,95.10
2023-04-05T06:24:12.400Z,95.50
2023-04-05T06:26:39.665Z,95.70
2023-04-05T06:29:07.119Z,96.10
2023-04-05T06:31:36.139Z,95.30
2023-04-05T06:34:03.490Z,95.60
2023-04-05T06:36:32.120Z,95.50
2023-04-05T06:38:59.661Z,94.40
2023-04-05T06:41:30.109Z,95.00
2023-04-05T06:43:57.116Z,92.50
2023-04-05T06:46:24.735Z,93.40
2023-04-05T06:48:52.594Z,93.80
2023-04-05T06:51:21.941Z,93.50
2023-04-05T06:53:49.100Z,96.30
2023-04-05T06:56:16.465Z,92.80
2023-04-05T06:58:44.295Z,90.80
2023-04-05T07:01:12.108Z,87.00
2023-04-05T07:03:40.665Z,85.40
2023-04-05T07:06:09.722Z,83.60
2023-04-05T07:08:37.150Z,88.20
2023-04-05T07:11:04.621Z,86.80
2023-04-05T07:13:32.722Z,88.50
2023-04-05T07:16:01.779Z,78.80
2023-04-05T07:18:29.919Z,74.10
2023-04-05T07:21:02.001Z,76.10
2023-04-05T07:23:29.682Z,81.90
2023-04-05T07:26:05.089Z,74.70
2023-04-05T07:28:33.389Z,70.10
2023-04-05T07:31:01.003Z,68.60
2023-04-05T07:33:28.356Z,71.50
2023-04-05T07:35:57.074Z,69.70
2023-04-05T07:38:25.024Z,71.10
2023-04-05T07:40:52.544Z,72.70
2023-04-05T07:43:19.666Z,72.90
2023-04-05T07:45:47.279Z,75.40
2023-04-05T07:48:14.305Z,80.80
2023-04-05T07:50:42.566Z,79.20
2023-04-05T07:53:09.713Z,79.30
2023-04-05T07:55:41.143Z,77.50
2023-04-05T07:58:08.059Z,70.00
2023-04-05T08:00:35.306Z,63.00
2023-04-05T08:03:02.763Z,56.40
2023-04-05T08:05:30.432Z,49.20
2023-04-05T08:07:58.392Z,48.00
2023-04-05T08:10:26.208Z,49.30
2023-04-05T08:12:53.706Z,50.50
2023-04-05T08:15:21.332Z,50.10
2023-04-05T08:17:48.572Z,48.20
2023-04-05T08:20:16.149Z,50.70
2023-04-05T08:22:44.331Z,48.00
2023-04-05T08:25:11.734Z,42.40
2023-04-05T08:27:38.740Z,43.20
2023-04-05T08:30:06.888Z,42.00
2023-04-05T08:32:35.107Z,41.80
2023-04-05T08:35:02.702Z,39.70
2023-04-05T08:37:29.719Z,37.20
2023-04-05T08:39:56.990Z,35.10
2023-04-05T08:42:30.451Z,34.10
2023-04-05T08:44:59.757Z,33.70
2023-04-05T08:47:27.711Z,32.30
2023-04-05T08:49:55.261Z,33.80
2023-04-05T08:52:22.507Z,36.50
2023-04-05T08:54:50.929Z,41.80
2023-04-05T08:57:19.093Z,42.50
2023-04-05T08:59:47.006Z,38.50
2023-04-05T09:02:19.493Z,34.40
2023-04-05T09:04:48.571Z,35.10
2023-04-05T09:07:15.901Z,35.60
2023-04-05T09:09:47.673Z,36.50
2023-04-05T09:12:15.679Z,40.70
2023-04-05T09:14:44.165Z,44.20
2023-04-05T09:17:12.319Z,47.60
2023-04-05T09:19:39.903Z,50.10
2023-04-05T09:22:08.746Z,51.20
2023-04-05T09:24:39.418Z,52.80
2023-04-05T09:27:15.427Z,52.20
2023-04-05T09:29:47.187Z,50.60
2023-04-05T09:32:15.973Z,53.40
2023-04-05T09:34:44.382Z,54.50
2023-04-05T09:37:20.012Z,57.10
2023-04-05T09:39:50.687Z,59.40
2023-04-05T09:42:24.835Z,62.20
2023-04-05T09:45:07.173Z,54.80
2023-04-05T09:47:35.127Z,46.00
2023-04-05T09:50:06.514Z,39.70
2023-04-05T09:52:33.639Z,38.50
2023-04-05T09:55:04.274Z,37.20
2023-04-05T09:57:35.324Z,39.00
2023-04-05T10:00:05.720Z,39.10
2023-04-05T10:02:39.586Z,41.70
2023-04-05T10:05:13.796Z,44.10
2023-04-05T10:07:41.819Z,48.70
2023-04-05T10:10:10.933Z,48.60
2023-04-05T10:12:41.911Z,53.80
2023-04-05T10:15:11.316Z,53.90
2023-04-05T10:17:58.694Z,57.70
2023-04-05T10:20:30.881Z,57.40
2023-04-05T10:23:12.656Z,56.50
2023-04-05T10:25:55.441Z,56.10
2023-04-05T10:28:41.825Z,54.30
2023-04-05T10:31:37.864Z,54.60
2023-04-05T10:34:07.537Z,53.80
2023-04-05T10:36:39.221Z,54.60
2023-04-05T10:39:16.854Z,55.10
2023-04-05T10:41:57.836Z,56.80
2023-04-05T10:44:26.712Z,57.40
2023-04-05T10:46:55.634Z,58.30
2023-04-05T10:49:47.589Z,60.30
2023-04-05T10:52:16.434Z,60.10
2023-04-05T10:54:44.681Z,61.90
2023-04-05T10:57:13.088Z,63.10
2023-04-05T10:59:43.799Z,63.40
2023-04-05T11:02:12.568Z,63.70
2023-04-05T11:04:42.271Z,63.60
2023-04-05T11:07:18.771Z,61.60
2023-04-05T11:09:53.731Z,59.80
2023-04-05T11:12:48.459Z,59.70
2023-04-05T11:15:27.883Z,58.30
2023-04-05T11:18:08.886Z,57.50
2023-04-05T11:20:42.976Z,56.80
2023-04-05T11:23:15.943Z,56.40
2023-04-05T11:25:59.910Z,56.20
2023-04-05T11:28:37.814Z,55.90
2023-04-05T11:31:19.804Z,56.20
2023-04-05T11:33:55.164Z,56.50
2023-04-05T11:36:35.875Z,56.20
2023-04-05T11:39:18.531Z,57.10
2023-04-05T11:41:48.001Z,58.40
2023-04-05T11:44:18.832Z,59.80
2023-04-05T11:46:50.096Z,59.50
2023-04-05T11:49:17.929Z,59.70
2023-04-05T11:51:49.041Z,63.00
2023-04-05T11:54:32.345Z,63.90
2023-04-05T11:56:59.837Z,63.10
2023-04-05T11:59:35.354Z,63.20
2023-04-05T12:02:08.517Z,63.10
2023-04-05T12:04:40.536Z,62.50
2023-04-05T12:07:19.022Z,62.80
2023-04-05T12:10:05.607Z,63.30
2023-04-05T12:12:40.015Z,63.00
2023-04-05T12:15:09.102Z,63.90
2023-04-05T12:17:44.026Z,64.50
2023-04-05T12:20:13.878Z,65.30
2023-04-05T12:22:43.384Z,65.50
2023-04-05T12:25:11.386Z,64.10
2023-04-05T12:27:39.848Z,64.00
2023-04-05T12:30:11.124Z,64.00
2023-04-05T12:32:47.320Z,61.60
2023-04-05T12:35:32.798Z,60.20
2023-04-05T12:38:05.968Z,59.80
2023-04-05T12:40:37.764Z,61.80
2023-04-05T12:43:06.750Z,59.70
2023-04-05T12:45:41.734Z,60.90
2023-04-05T12:48:13.964Z,61.00
2023-04-05T12:50:46.457Z,59.20
2023-04-05T12:53:21.585Z,61.90
2023-04-05T12:55:51.320Z,61.00
2023-04-05T12:58:23.613Z,61.20
2023-04-05T13:00:50.917Z,61.40
2023-04-05T13:03:21.016Z,62.20
2023-04-05T13:05:49.539Z,60.20
2023-04-05T13:08:20.090Z,61.30
2023-04-05T13:10:49.860Z,61.30
2023-04-05T13:13:17.888Z,64.70
2023-04-05T13:15:45.896Z,64.20
2023-04-05T13:18:15.077Z,64.20
2023-04-05T13:20:43.427Z,64.40
2023-04-05T13:23:12.167Z,63.50
2023-04-05T13:25:46.105Z,60.20
2023-04-05T13:28:13.603Z,58.00
2023-04-05T13:30:41.034Z,61.40
2023-04-05T13:33:08.749Z,59.50
2023-04-05T13:35:36.445Z,60.90
2023-04-05T13:38:04.791Z,63.00
2023-04-05T13:40:33.155Z,61.20
2023-04-05T13:43:00.542Z,61.10
2023-04-05T13:45:28.151Z,64.90
2023-04-05T13:47:56.203Z,64.30
2023-04-05T13:50:24.065Z,65.00
2023-04-05T13:52:52.078Z,66.10
2023-04-05T13:55:20.994Z,65.00
2023-04-05T13:57:48.037Z,65.30
2023-04-05T14:00:15.880Z,67.60
2023-04-05T14:02:43.911Z,66.10
2023-04-05T14:05:11.379Z,66.40
2023-04-05T14:07:38.811Z,66.00
2023-04-05T14:10:06.806Z,65.50
2023-04-05T14:12:34.562Z,65.50
2023-04-05T14:15:02.203Z,65.50
2023-04-05T14:17:29.411Z,67.00
2023-04-05T14:19:56.859Z,66.10
2023-04-05T14:22:24.259Z,65.60
2023-04-05T14:24:51.828Z,65.10
2023-04-05T14:27:22.213Z,65.90
2023-04-05T14:29:52.680Z,65.20
2023-04-05T14:32:19.741Z,67.80
2023-04-05T14:34:47.167Z,66.10
2023-04-05T14:37:14.356Z,65.50
2023-04-05T14:39:41.870Z,66.20
2023-04-05T14:42:08.925Z,65.10
2023-04-05T14:44:40.366Z,66.20
2023-04-05T14:47:07.769Z,66.10
2023-04-05T14:49:35.192Z,65.50
2023-04-05T14:52:02.510Z,66.70
2023-04-05T14:54:30.047Z,65.80
2023-04-05T14:56:57.503Z,66.60
2023-04-05T14:59:26.445Z,66.70
2023-04-05T15:01:53.727Z,67.30
2023-04-05T15:04:21.163Z,66.20
2023-04-05T15:06:48.364Z,64.90
2023-04-05T15:09:15.960Z,65.40
2023-04-05T15:11:43.279Z,67.50
2023-04-05T15:14:21.025Z,68.10
2023-04-05T15:16:51.827Z,63.70
2023-04-05T15:19:19.450Z,64.30
2023-04-05T15:21:46.533Z,65.10
2023-04-05T15:24:13.838Z,65.80
2023-04-05T15:26:41.162Z,68.70
2023-04-05T15:29:08.607Z,69.30
2023-04-05T15:31:36.200Z,67.70
2023-04-05T15:34:04.001Z,68.10
2023-04-05T15:36:32.178Z,67.50
2023-04-05T15:38:59.495Z,69.60
2023-04-05T15:41:26.634Z,70.90
2023-04-05T15:43:54.016Z,70.00
2023-04-05T15:46:21.225Z,71.30
2023-04-05T15:48:48.537Z,70.70
2023-04-05T15:51:15.815Z,70.90
2023-04-05T15:53:43.225Z,68.40
2023-04-05T15:56:10.845Z,69.60
2023-04-05T15:58:38.859Z,71.20
2023-04-05T16:01:06.493Z,71.00
2023-04-05T16:03:34.027Z,70.80
2023-04-05T16:06:01.173Z,71.50
2023-04-05T16:08:28.836Z,71.00
2023-04-05T16:10:57.167Z,68.40
2023-04-05T16:13:25.081Z,70.80
2023-04-05T16:15:52.218Z,70.90
2023-04-05T16:18:21.239Z,71.60
2023-04-05T16:20:48.609Z,71.20
2023-04-05T16:23:16.155Z,71.10
2023-04-05T16:25:43.518Z,73.50
2023-04-05T16:28:10.916Z,73.70
2023-04-05T16:30:38.035Z,71.70
2023-04-05T16:33:08.121Z,74.00
2023-04-05T16:35:35.241Z,73.50
2023-04-05T16:38:02.809Z,74.10
2023-04-05T16:40:30.086Z,75.90
2023-04-05T16:42:57.358Z,71.60
2023-04-05T16:45:25.784Z,71.80
2023-04-05T16:47:53.276Z,71.10
2023-04-05T16:50:20.450Z,71.80
2023-04-05T16:52:47.880Z,73.40
2023-04-05T16:55:15.451Z,74.10
2023-04-05T16:57:42.918Z,76.60
2023-04-05T17:00:10.574Z,75.70
2023-04-05T17:02:38.158Z,77.10
2023-04-05T17:05:06.403Z,77.50
2023-04-05T17:07:33.968Z,78.50
2023-04-05T17:10:02.975Z,79.00
2023-04-05T17:12:30.771Z,83.60
2023-04-05T17:14:57.868Z,80.90
2023-04-05T17:17:25.703Z,82.50
2023-04-05T17:19:53.458Z,82.50
2023-04-05T17:22:21.381Z,84.60
2023-04-05T17:24:48.802Z,87.20
2023-04-05T17:27:16.406Z,90.10
2023-04-05T17:29:43.670Z,90.70
2023-04-05T17:32:11.292Z,91.70
2023-04-05T17:34:38.491Z,91.80
2023-04-05T17:37:05.747Z,91.90
2023-04-05T17:39:32.932Z,92.20
2023-04-05T17:42:00.514Z,93.00
2023-04-05T17:44:30.262Z,93.70
2023-04-05T17:47:08.403Z,93.80
2023-04-05T17:49:37.619Z,93.50
2023-04-05T17:52:08.817Z,93.80
2023-04-05T17:54:37.176Z,93.90
2023-04-05T17:57:05.999Z,93.80
2023-04-05T17:59:33.424Z,94.10
2023-04-05T18:02:01.332Z,94.50
2023-04-05T18:04:28.797Z,95.00
2023-04-05T18:06:56.498Z,95.30
2023-04-05T18:09:23.802Z,95.40
2023-04-05T18:11:51.455Z,95.50
2023-04-05T18:14:18.590Z,95.70
2023-04-05T18:16:46.490Z,96.10
2023-04-05T18:19:13.799Z,96.30
2023-04-05T18:21:41.398Z,97.80
2023-04-05T18:24:08.732Z,98.00
2023-04-05T18:26:37.770Z,98.80
2023-04-05T18:34:00.502Z,99.90
2023-04-05T18:36:28.029Z,99.90
2023-04-05T18:38:57.827Z,99.90
2023-04-05T18:41:25.328Z,99.90
2023-04-05T18:43:55.872Z,99.90
2023-04-05T18:46:23.858Z,99.90
2023-04-05T18:48:57.913Z,99.90
2023-04-05T18:51:27.134Z,99.90
2023-04-05T18:53:54.674Z,99.90
2023-04-05T18:56:22.368Z,99.90
2023-04-05T18:58:52.612Z,99.90
2023-04-05T19:01:20.790Z,99.90
2023-04-05T19:03:49.065Z,99.90
2023-04-05T19:06:16.859Z,99.90
2023-04-05T19:08:44.265Z,99.90
2023-04-05T19:11:14.002Z,99.90
2023-04-05T19:13:42.079Z,99.90
2023-04-05T19:16:09.922Z,99.90
2023-04-05T19:18:37.433Z,99.90
2023-04-05T19:21:05.181Z,99.90
2023-04-05T19:23:32.660Z,99.90
2023-04-05T19:26:00.751Z,99.90
2023-04-05T19:28:27.966Z,99.90
2023-04-05T19:30:55.686Z,99.90
2023-04-05T19:33:23.364Z,99.90
2023-04-05T19:35:52.008Z,99.90
2023-04-05T19:38:22.308Z,99.90
2023-04-05T19:40:50.115Z,99.90
2023-04-05T19:43:17.768Z,99.90
2023-04-05T19:45:45.489Z,99.90
2023-04-05T19:48:34.123Z,99.90
2023-04-05T19:51:09.737Z,99.90
2023-04-05T19:53:51.067Z,99.90
2023-04-05T19:56:24.559Z,99.90
2023-04-05T19:59:25.318Z,99.90
2023-04-05T20:01:53.498Z,99.90
2023-04-05T20:04:23.570Z,99.90
2023-04-05T20:06:55.753Z,99.90
2023-04-05T20:09:29.356Z,99.90
2023-04-05T20:11:59.776Z,99.90
2023-04-05T20:14:30.516Z,99.90
2023-04-05T20:16:58.552Z,99.90
2023-04-05T20:19:31.756Z,99.90
2023-04-05T20:22:01.535Z,99.90
2023-04-05T20:24:29.594Z,99.90
2023-04-05T20:26:57.206Z,99.90
2023-04-05T20:29:28.946Z,99.90
2023-04-05T20:31:56.789Z,99.90
2023-04-05T20:34:35.085Z,99.90
2023-04-05T20:37:13.072Z,99.90
2023-04-05T20:39:40.245Z,99.90
2023-04-05T20:42:09.782Z,99.90
2023-04-05T20:44:37.283Z,99.90
2023-04-05T20:47:04.724Z,99.90
2023-04-05T20:49:31.906Z,99.90
2023-04-05T20:51:59.767Z,99.90
2023-04-05T20:54:26.829Z,99.90
2023-04-05T20:56:54.270Z,99.90
2023-04-05T20:59:21.602Z,99.90
2023-04-05T21:01:49.290Z,99.90
2023-04-05T21:07:19.759Z,1.00
2023-04-05T21:09:47.314Z,79.00
2023-04-05T21:12:14.256Z,99.90
2023-04-05T21:14:41.485Z,99.90
2023-04-05T21:17:08.473Z,99.90
2023-04-05T21:19:35.801Z,1.00
2023-04-05T21:22:02.753Z,1.00
2023-04-05T21:24:30.137Z,1.00
2023-04-05T21:26:57.272Z,1.00
2023-04-05T21:29:24.736Z,1.00
2023-04-05T21:31:51.774Z,76.70
2023-04-05T21:34:19.271Z,83.00
2023-04-05T21:36:46.239Z,99.90
2023-04-05T21:39:13.459Z,99.90
2023-04-05T21:41:40.388Z,99.90
2023-04-05T21:44:07.747Z,99.90
2023-04-05T21:46:34.776Z,99.90
2023-04-05T21:49:02.077Z,99.90
2023-04-05T21:51:29.211Z,1.00
2023-04-05T21:53:56.630Z,1.00
2023-04-05T21:56:23.594Z,1.00
2023-04-05T21:58:50.847Z,1.00
2023-04-05T22:01:17.936Z,1.00
2023-04-05T22:03:45.459Z,99.90
2023-04-05T22:06:12.444Z,1.00
2023-04-05T22:08:39.924Z,1.00
2023-04-05T22:11:07.228Z,1.00
2023-04-05T22:13:34.438Z,99.90
2023-04-05T22:16:01.809Z,99.90
2023-04-05T22:18:29.185Z,1.00
2023-04-05T22:20:56.148Z,1.00
2023-04-05T22:23:23.827Z,1.00
2023-04-05T22:25:51.573Z,66.50
2023-04-05T22:28:19.194Z,99.90
2023-04-05T22:30:46.263Z,99.90
2023-04-05T22:33:13.984Z,99.90
2023-04-05T22:35:42.074Z,99.90
2023-04-05T22:38:09.434Z,99.90
2023-04-05T22:40:36.455Z,99.90
2023-04-05T22:43:03.885Z,99.90
2023-04-05T22:45:31.132Z,99.90
2023-04-05T22:47:58.427Z,99.90
2023-04-05T22:50:25.611Z,99.90
2023-04-05T22:52:52.819Z,99.90
2023-04-05T22:55:19.888Z,99.90
2023-04-05T22:57:47.731Z,99.90
2023-04-05T23:00:15.794Z,99.90
2023-04-05T23:02:43.397Z,99.90
2023-04-05T23:05:11.064Z,1.00
2023-04-05T23:07:38.714Z,1.00
2023-04-05T23:10:06.291Z,1.00
2023-04-05T23:12:33.490Z,1.00
2023-04-05T23:15:00.573Z,1.00
2023-04-05T23:17:28.055Z,1.00
2023-04-05T23:19:55.010Z,1.00
2023-04-05T23:22:22.249Z,1.00
2023-04-05T23:24:49.243Z,1.00
2023-04-05T23:27:16.595Z,1.00
2023-04-05T23:29:43.684Z,1.00
2023-04-05T23:32:12.904Z,1.00
2023-04-05T23:34:40.027Z,1.00
2023-04-05T23:37:07.257Z,1.00
2023-04-05T23:39:34.197Z,1.00
2023-04-05T23:42:01.801Z,1.00
2023-04-05T23:44:28.885Z,1.00
2023-04-05T23:46:56.640Z,1.00
2023-04-05T23:49:26.465Z,1.00
2023-04-05T23:51:54.448Z,1.00
2023-04-05T23:54:21.453Z,1.00
2023-04-05T23:56:49.126Z,1.00
2023-04-05T23:59:16.196Z,1.00
